createdAt,value
2023-08-12T00:02:33.470Z,4.0200000000000005
2023-08-12T00:05:30.054Z,3.6799999999999997
2023-08-12T00:08:25.566Z,4.68
2023-08-12T00:11:21.177Z,6.7
2023-08-12T00:14:16.673Z,4.220000000000001
2023-08-12T00:17:12.491Z,4.12
2023-08-12T00:20:09.790Z,3.38
2023-08-12T00:23:05.365Z,3.78
2023-08-12T00:26:00.952Z,5.9
2023-08-12T00:28:56.477Z,4.2
2023-08-12T00:31:52.051Z,3.46
2023-08-12T00:34:47.618Z,5.779999999999999
2023-08-12T00:37:44.200Z,3.7400000000000007
2023-08-12T00:40:40.729Z,6.5200000000000005
2023-08-12T00:43:36.291Z,4.98
2023-08-12T00:46:31.883Z,4.3
2023-08-12T00:49:28.417Z,7.040000000000001
2023-08-12T00:52:24.997Z,4.98
2023-08-12T00:55:21.540Z,5.38
2023-08-12T00:58:18.084Z,7.44
2023-08-12T01:01:15.721Z,5.24
2023-08-12T01:04:11.209Z,6.360000000000001
2023-08-12T01:07:07.755Z,4.659999999999999
2023-08-12T01:10:04.355Z,5.619999999999999
2023-08-12T01:13:07.865Z,5.96
2023-08-12T01:16:06.515Z,4.02
2023-08-12T01:19:03.005Z,6.5600000000000005
2023-08-12T01:22:02.512Z,7.06
2023-08-12T01:24:58.147Z,5.4
2023-08-12T01:27:53.647Z,4.5600000000000005
2023-08-12T01:30:56.255Z,4.42
2023-08-12T01:34:01.715Z,9.280000000000001
2023-08-12T01:37:00.353Z,8.2
2023-08-12T01:39:59.816Z,4.88
2023-08-12T01:42:56.404Z,6.04
2023-08-12T01:45:51.968Z,5.640000000000001
2023-08-12T01:48:47.525Z,6.299999999999999
2023-08-12T01:51:44.094Z,4.64
2023-08-12T01:54:39.638Z,5.76
2023-08-12T01:57:38.198Z,6.58
2023-08-12T02:00:34.740Z,9.4
2023-08-12T02:03:30.399Z,6.82
2023-08-12T02:06:25.873Z,5.1
2023-08-12T02:09:22.476Z,4.14
2023-08-12T02:12:17.989Z,5.159999999999999
2023-08-12T02:15:13.561Z,8.1
2023-08-12T02:18:09.143Z,6.94
2023-08-12T02:21:04.660Z,9.02
2023-08-12T02:24:01.279Z,5.220000000000001
2023-08-12T02:26:56.819Z,4.26
2023-08-12T02:29:52.361Z,3.6
2023-08-12T02:32:47.925Z,4.62
2023-08-12T02:35:43.476Z,4.38
2023-08-12T02:38:39.058Z,6.82
2023-08-12T02:41:34.657Z,5.92
2023-08-12T02:44:30.178Z,5.680000000000001
2023-08-12T02:47:25.807Z,3.8400000000000007
2023-08-12T02:50:21.298Z,4.619999999999999
2023-08-12T02:53:18.933Z,4.680000000000001
2023-08-12T02:56:14.417Z,4.340000000000001
2023-08-12T02:59:09.997Z,3.5200000000000005
2023-08-12T03:02:06.623Z,5.66
2023-08-12T03:05:02.133Z,4.24
2023-08-12T03:08:01.668Z,4.1
2023-08-12T03:11:01.220Z,5.94
2023-08-12T03:13:56.836Z,4.74
2023-08-12T03:16:52.323Z,5.4
2023-08-12T03:19:47.947Z,3.9200000000000004
2023-08-12T03:22:43.462Z,4.82
2023-08-12T03:25:40.032Z,5.279999999999999
2023-08-12T03:28:36.595Z,4.82
2023-08-12T03:31:32.244Z,3.8200000000000003
2023-08-12T03:34:28.690Z,4.66
2023-08-12T03:37:24.261Z,6
2023-08-12T03:40:19.830Z,3.6400000000000006
2023-08-12T03:43:15.397Z,5.24
2023-08-12T03:46:12.969Z,5.18
2023-08-12T03:49:08.487Z,4.24
2023-08-12T03:52:05.071Z,4.9399999999999995
2023-08-12T03:55:00.632Z,4.46
2023-08-12T03:57:56.176Z,5.66
2023-08-12T04:00:51.783Z,4.640000000000001
2023-08-12T04:03:48.337Z,4.3
2023-08-12T04:06:48.852Z,7.620000000000002
2023-08-12T04:09:44.423Z,4.58
2023-08-12T04:12:40.932Z,5.4
2023-08-12T04:15:37.538Z,6.76
2023-08-12T04:18:33.123Z,6.34
2023-08-12T04:21:28.683Z,5.74
2023-08-12T04:24:24.229Z,5.26
2023-08-12T04:27:19.798Z,4.12
2023-08-12T04:30:16.578Z,5.26
2023-08-12T04:33:12.929Z,7.1
2023-08-12T04:36:08.507Z,5.92
2023-08-12T04:39:05.041Z,4.96
2023-08-12T04:42:00.579Z,8.5
2023-08-12T04:44:56.137Z,5.72
2023-08-12T04:47:51.698Z,5.92
2023-08-12T04:50:47.241Z,4.82
2023-08-12T04:53:47.804Z,5.82
2023-08-12T04:56:43.367Z,7.5
2023-08-12T04:59:41.936Z,8.719999999999999
2023-08-12T05:02:37.535Z,7.24
2023-08-12T05:05:34.042Z,8.72
2023-08-12T05:08:29.635Z,6.6
2023-08-12T05:11:26.169Z,6.12
2023-08-12T05:14:21.743Z,9.1
2023-08-12T05:17:17.257Z,6.220000000000001
2023-08-12T05:20:12.896Z,7.640000000000001
2023-08-12T05:23:08.432Z,7.4
2023-08-12T05:26:03.958Z,7
2023-08-12T05:28:59.552Z,6.14
2023-08-12T05:31:55.168Z,5.34
2023-08-12T05:34:51.707Z,5.72
2023-08-12T05:37:47.251Z,4.819999999999999
2023-08-12T05:40:43.792Z,5.14
2023-08-12T05:43:40.357Z,8.36
2023-08-12T05:46:35.957Z,4.760000000000001
2023-08-12T05:49:32.520Z,5.44
2023-08-12T05:52:28.079Z,4.34
2023-08-12T05:55:23.551Z,6.419999999999999
2023-08-12T05:58:19.150Z,5.34
2023-08-12T06:01:17.701Z,6.9799999999999995
2023-08-12T06:04:13.292Z,5.64
2023-08-12T06:07:09.816Z,6.8
2023-08-12T06:10:06.381Z,8.9
2023-08-12T06:13:01.956Z,9.599999999999998
2023-08-12T06:15:57.512Z,4.74
2023-08-12T06:18:53.042Z,3.8
2023-08-12T06:21:48.617Z,4.180000000000001
2023-08-12T06:24:45.220Z,6.74
2023-08-12T06:27:40.761Z,3.6800000000000006
2023-08-12T06:30:38.325Z,4.180000000000001
2023-08-12T06:33:33.886Z,4.12
2023-08-12T06:36:29.418Z,4.94
2023-08-12T06:39:25.996Z,5.4
2023-08-12T06:42:23.541Z,3.8599999999999994
2023-08-12T06:45:19.086Z,2.9200000000000004
2023-08-12T06:48:14.777Z,4.4799999999999995
2023-08-12T06:51:11.247Z,3.2399999999999998
2023-08-12T06:54:06.798Z,3.1400000000000006
2023-08-12T06:57:02.333Z,6.5600000000000005
2023-08-12T06:59:58.910Z,3.22
2023-08-12T07:02:55.525Z,4.08
2023-08-12T07:05:51.021Z,3.0799999999999996
2023-08-12T07:08:46.636Z,3.38
2023-08-12T07:11:42.173Z,2.92
2023-08-12T07:14:37.768Z,5.68
2023-08-12T07:17:34.307Z,7.880000000000001
2023-08-12T07:20:29.841Z,4.5
2023-08-12T07:23:25.416Z,3.4200000000000004
2023-08-12T07:26:20.991Z,4.46
2023-08-12T07:29:16.546Z,3.94
2023-08-12T07:32:13.473Z,7.12
2023-08-12T07:35:10.678Z,4.56
2023-08-12T07:38:06.197Z,3.88
2023-08-12T07:41:02.759Z,2.46
2023-08-12T07:43:58.320Z,2.6
2023-08-12T07:46:54.911Z,2.7800000000000002
2023-08-12T07:49:50.458Z,3.56
2023-08-12T07:52:46.014Z,4.66
2023-08-12T07:55:41.586Z,3.9
2023-08-12T07:58:37.802Z,4.32
2023-08-12T08:01:34.264Z,4.06
2023-08-12T08:04:31.344Z,2.76
2023-08-12T08:07:26.842Z,3.28
2023-08-12T08:10:24.382Z,3.6
2023-08-12T08:13:20.954Z,2.66
2023-08-12T08:16:16.660Z,4.06
2023-08-12T08:19:13.466Z,3.06
2023-08-12T08:22:10.998Z,2.98
2023-08-12T08:25:08.179Z,2.62
2023-08-12T08:28:04.761Z,3.56
2023-08-12T08:31:00.297Z,3.3199999999999994
2023-08-12T08:33:55.851Z,4.5200000000000005
2023-08-12T08:36:52.710Z,3.1799999999999997
2023-08-12T08:39:47.964Z,3.1600000000000006
2023-08-12T08:42:46.522Z,4.26
2023-08-12T08:45:46.043Z,2.12
2023-08-12T08:48:42.634Z,2.3600000000000003
2023-08-12T08:51:39.188Z,2.7199999999999998
2023-08-12T08:54:36.774Z,5.6
2023-08-12T08:57:41.919Z,2.04
2023-08-12T09:00:33.868Z,2.8000000000000003
2023-08-12T09:03:30.401Z,3.2
2023-08-12T09:06:29.966Z,3.3
2023-08-12T09:09:26.521Z,1.86
2023-08-12T09:12:25.045Z,2.3600000000000003
2023-08-12T09:15:21.618Z,2.6399999999999997
2023-08-12T09:18:19.190Z,3
2023-08-12T09:21:16.773Z,4
2023-08-12T09:24:14.304Z,2.44
2023-08-12T09:27:10.883Z,2.56
2023-08-12T09:30:08.464Z,4.24
2023-08-12T09:33:08.004Z,3.66
2023-08-12T09:36:06.585Z,4.08
2023-08-12T09:39:07.093Z,3.5
2023-08-12T09:42:03.635Z,3.4200000000000004
2023-08-12T09:44:59.195Z,2.5799999999999996
2023-08-12T09:47:58.891Z,3.5799999999999996
2023-08-12T09:50:55.336Z,6.14
2023-08-12T09:53:54.877Z,3.78
2023-08-12T09:56:55.459Z,4.819999999999999
2023-08-12T09:59:55.022Z,3.18
2023-08-12T10:02:53.627Z,17.279999999999998
2023-08-12T10:05:53.076Z,2.3
2023-08-12T10:08:51.641Z,4.6
2023-08-12T10:11:48.211Z,4.859999999999999
2023-08-12T10:14:45.741Z,3.5599999999999996
2023-08-12T10:17:44.163Z,2.7600000000000002
2023-08-12T10:20:44.942Z,3.08
2023-08-12T10:23:47.682Z,3.4200000000000004
2023-08-12T10:26:46.008Z,3.8600000000000003
2023-08-12T10:29:43.481Z,3.5
2023-08-12T10:32:42.092Z,3.6799999999999997
2023-08-12T10:35:43.612Z,2.6800000000000006
2023-08-12T10:38:39.201Z,5.68
2023-08-12T10:41:45.676Z,3.06
2023-08-12T10:44:46.214Z,2.7800000000000002
2023-08-12T10:47:44.893Z,3.16
2023-08-12T10:50:46.387Z,5.619999999999999
2023-08-12T10:53:49.950Z,3.84
2023-08-12T10:56:57.452Z,2.7800000000000002
2023-08-12T10:59:59.565Z,2.8600000000000003
2023-08-12T11:03:00.542Z,3.4200000000000004
2023-08-12T11:05:57.097Z,3.4200000000000004
2023-08-12T11:08:57.652Z,3.2399999999999998
2023-08-12T11:11:58.184Z,3.7600000000000002
2023-08-12T11:14:58.764Z,3.9
2023-08-12T11:17:59.327Z,2.88
2023-08-12T11:20:55.861Z,4.42
2023-08-12T11:23:55.371Z,4.78
2023-08-12T11:26:51.954Z,4.68
2023-08-12T11:29:50.513Z,3.04
2023-08-12T11:32:47.119Z,2.46
2023-08-12T11:35:44.624Z,3.38
2023-08-12T11:38:40.161Z,4.46
2023-08-12T11:41:36.757Z,2.42
2023-08-12T11:44:32.323Z,2.8600000000000003
2023-08-12T11:47:27.868Z,3.8600000000000003
2023-08-12T11:50:25.431Z,4.82
2023-08-12T11:53:22.991Z,3.54
2023-08-12T11:56:21.548Z,6.779999999999999
2023-08-12T11:59:22.057Z,4.660000000000001
2023-08-12T12:02:21.611Z,4.58
2023-08-12T12:05:18.580Z,8.1
2023-08-12T12:08:16.719Z,3.08
2023-08-12T12:11:12.341Z,5.799999999999999
2023-08-12T12:14:08.829Z,1.7399999999999998
2023-08-12T12:17:13.500Z,4.159999999999999
2023-08-12T12:20:12.020Z,3.4799999999999995
2023-08-12T12:23:07.556Z,2.44
2023-08-12T12:26:04.077Z,3.72
2023-08-12T12:28:59.666Z,3.7
2023-08-12T12:31:56.194Z,4.04
2023-08-12T12:34:54.763Z,3.34
2023-08-12T12:37:50.922Z,2.1399999999999997
2023-08-12T12:40:46.893Z,4.22
2023-08-12T12:43:43.425Z,3.56
2023-08-12T12:46:40.013Z,2.5
2023-08-12T12:49:36.542Z,2.2800000000000002
2023-08-12T12:52:32.125Z,4.8
2023-08-12T12:55:28.765Z,2.8400000000000007
2023-08-12T12:58:26.243Z,3.3400000000000007
2023-08-12T13:01:21.816Z,4.16
2023-08-12T13:04:17.355Z,3.2
2023-08-12T13:07:12.934Z,4.84
2023-08-12T13:10:09.512Z,3.12
2023-08-12T13:13:06.051Z,5.66
2023-08-12T13:16:01.695Z,3.4400000000000004
2023-08-12T13:18:59.168Z,3.6599999999999993
2023-08-12T13:21:55.712Z,3.3800000000000003
2023-08-12T13:24:53.281Z,3.5799999999999996
2023-08-12T13:27:49.858Z,3.8600000000000003
2023-08-12T13:30:45.426Z,2.0799999999999996
2023-08-12T13:33:41.003Z,2.8600000000000003
2023-08-12T13:36:37.567Z,3.44
2023-08-12T13:39:33.113Z,4.8
2023-08-12T13:42:29.616Z,3.3200000000000003
2023-08-12T13:45:25.282Z,1.72
2023-08-12T13:48:20.895Z,3.38
2023-08-12T13:51:16.340Z,2.8
2023-08-12T13:54:11.875Z,3.6799999999999997
2023-08-12T13:57:07.472Z,2.6399999999999997
2023-08-12T14:00:07.019Z,2.2
2023-08-12T14:03:02.571Z,2.82
2023-08-12T14:06:01.258Z,2.1800000000000006
2023-08-12T14:08:56.698Z,2.6399999999999997
2023-08-12T14:11:53.237Z,5.72
2023-08-12T14:14:49.786Z,3.2600000000000002
2023-08-12T14:17:47.392Z,2.86
2023-08-12T14:20:43.929Z,2.2
2023-08-12T14:23:41.449Z,3.56
2023-08-12T14:26:37.039Z,5.26
2023-08-12T14:29:32.593Z,3.3
2023-08-12T14:32:28.164Z,3.7399999999999998
2023-08-12T14:35:24.731Z,4.260000000000001
2023-08-12T14:38:22.281Z,5.359999999999999
2023-08-12T14:41:19.880Z,4.7
2023-08-12T14:44:16.406Z,3.3
2023-08-12T14:47:12.340Z,2.2800000000000002
2023-08-12T14:50:09.562Z,2.1199999999999997
2023-08-12T14:53:05.065Z,2.96
2023-08-12T14:56:01.643Z,3.3400000000000007
2023-08-12T14:58:57.192Z,3.12
2023-08-12T15:01:53.846Z,4.7
2023-08-12T15:04:49.301Z,3.9
2023-08-12T15:07:46.961Z,8.22
2023-08-12T15:10:42.464Z,2.5
2023-08-12T15:13:38.992Z,6.960000000000001
2023-08-12T15:16:34.548Z,2.9
2023-08-12T15:19:30.123Z,2.8400000000000003
2023-08-12T15:22:27.703Z,2.5599999999999996
2023-08-12T15:25:26.247Z,2.32
2023-08-12T15:28:22.781Z,3.2600000000000002
2023-08-12T15:31:20.931Z,3.2600000000000002
2023-08-12T15:34:15.882Z,2.22
2023-08-12T15:37:13.675Z,3.16
2023-08-12T15:40:10.060Z,4.6
2023-08-12T15:43:06.582Z,4.140000000000001
2023-08-12T15:46:02.182Z,3.6799999999999997
2023-08-12T15:48:57.718Z,1.9600000000000002
2023-08-12T15:51:53.224Z,2.94
2023-08-12T15:54:49.869Z,2.2600000000000002
2023-08-12T15:57:45.378Z,4.18
2023-08-12T16:00:44.001Z,2.3400000000000003
2023-08-12T16:03:41.602Z,6.14
2023-08-12T16:06:38.096Z,3.6199999999999997
2023-08-12T16:09:34.732Z,2.3200000000000003
2023-08-12T16:12:30.236Z,3.88
2023-08-12T16:15:25.761Z,3.9799999999999995
2023-08-12T16:18:21.328Z,2.62
2023-08-12T16:21:16.941Z,4.32
2023-08-12T16:24:12.460Z,11.08
2023-08-12T16:27:08.000Z,4.58
2023-08-12T16:30:04.550Z,2.52
2023-08-12T16:33:01.158Z,3.1800000000000006
2023-08-12T16:35:56.662Z,2.6399999999999997
2023-08-12T16:38:53.250Z,4.64
2023-08-12T16:41:49.782Z,3.6599999999999993
2023-08-12T16:44:47.108Z,2.52
2023-08-12T16:47:42.926Z,3.12
2023-08-12T16:50:39.480Z,3.9799999999999995
2023-08-12T16:53:35.030Z,4.779999999999999
2023-08-12T16:56:30.680Z,5.9
2023-08-12T16:59:27.147Z,2.44
2023-08-12T17:02:22.922Z,6.18
2023-08-12T17:05:19.280Z,5.82
2023-08-12T17:08:14.877Z,2.74
2023-08-12T17:11:11.393Z,3.0000000000000004
2023-08-12T17:14:09.972Z,3.34
2023-08-12T17:17:06.498Z,3.88
2023-08-12T17:20:04.042Z,3.9
2023-08-12T17:22:59.661Z,5.4
2023-08-12T17:25:55.165Z,8.02
2023-08-12T17:28:51.755Z,5.279999999999999
2023-08-12T17:31:50.307Z,6.22
2023-08-12T17:34:45.871Z,4
2023-08-12T17:37:41.480Z,2.7800000000000002
2023-08-12T17:40:38.579Z,4.779999999999999
2023-08-12T17:43:34.563Z,5.08
2023-08-12T17:46:30.158Z,4.279999999999999
2023-08-12T17:49:25.653Z,7.659999999999999
2023-08-12T17:52:21.212Z,7.06
2023-08-12T17:55:16.803Z,4.08
2023-08-12T17:58:12.377Z,3.5
2023-08-12T18:01:07.947Z,7.339999999999999
2023-08-12T18:04:04.490Z,5.380000000000001
2023-08-12T18:07:00.042Z,6.08
2023-08-12T18:09:55.588Z,7.4
2023-08-12T18:12:51.146Z,7.980000000000001
2023-08-12T18:15:46.830Z,8.02
2023-08-12T18:18:43.133Z,6.12
2023-08-12T18:21:40.854Z,8.58
2023-08-12T18:24:37.402Z,4.3
2023-08-12T18:27:32.961Z,7.5200000000000005
2023-08-12T18:30:30.693Z,6.980000000000001
2023-08-12T18:33:26.133Z,5.84
2023-08-12T18:36:21.648Z,5.84
2023-08-12T18:39:18.255Z,5.9
2023-08-12T18:42:14.043Z,9
2023-08-12T18:45:10.529Z,7.919999999999999
2023-08-12T18:48:13.948Z,8.9
2023-08-12T18:51:09.423Z,7.74
2023-08-12T18:54:06.993Z,9.719999999999999
2023-08-12T18:57:03.565Z,6.68
2023-08-12T19:00:01.099Z,9.7
2023-08-12T19:03:06.694Z,7.639999999999999
2023-08-12T19:06:03.212Z,9.98
2023-08-12T19:08:59.749Z,7.0600000000000005
2023-08-12T19:11:56.292Z,11.34
2023-08-12T19:14:53.866Z,10.22
2023-08-12T19:17:49.527Z,27.74
2023-08-12T19:20:46.042Z,41.22
2023-08-12T19:23:41.573Z,22.96
2023-08-12T19:26:38.095Z,20.619999999999997
2023-08-12T19:29:34.650Z,21.059999999999995
2023-08-12T19:32:30.259Z,15.219999999999999
2023-08-12T19:35:27.815Z,21.5
2023-08-12T19:38:26.364Z,23.46
2023-08-12T19:41:21.912Z,28.7
2023-08-12T19:44:17.474Z,32.04
2023-08-12T19:47:13.053Z,28.759999999999998
2023-08-12T19:50:10.600Z,31.9
2023-08-12T19:53:07.145Z,25.76
2023-08-12T19:56:03.712Z,19.660000000000004
2023-08-12T19:58:59.268Z,22.24
2023-08-12T20:01:57.847Z,20.4
2023-08-12T20:04:53.386Z,25.240000000000002
2023-08-12T20:07:49.949Z,19.98
2023-08-12T20:10:47.470Z,31.82
2023-08-12T20:13:45.124Z,20.32
2023-08-12T20:16:40.665Z,24.720000000000002
2023-08-12T20:19:36.180Z,14.6
2023-08-12T20:22:32.764Z,12.120000000000001
2023-08-12T20:25:29.307Z,23.68
2023-08-12T20:28:27.867Z,18.6
2023-08-12T20:31:24.499Z,21.3
2023-08-12T20:34:19.969Z,32.3
2023-08-12T20:37:16.696Z,20.7
2023-08-12T20:40:14.122Z,18.199999999999996
2023-08-12T20:43:10.650Z,16.060000000000002
2023-08-12T20:46:06.281Z,19.5
2023-08-12T20:49:04.783Z,16.919999999999998
2023-08-12T20:52:00.344Z,17.6
2023-08-12T20:54:55.924Z,15.84
2023-08-12T20:57:51.465Z,16.839999999999996
2023-08-12T21:00:47.022Z,13.9
2023-08-12T21:03:42.650Z,17.3
2023-08-12T21:06:41.134Z,16.68
2023-08-12T21:09:38.337Z,21.02
2023-08-12T21:12:36.251Z,10.82
2023-08-12T21:15:31.827Z,15.040000000000001
2023-08-12T21:18:28.417Z,13.6
2023-08-12T21:21:24.927Z,13.74
2023-08-12T21:24:21.500Z,11.42
2023-08-12T21:27:18.660Z,15.2
2023-08-12T21:30:13.681Z,15.540000000000001
2023-08-12T21:33:13.155Z,16.3
2023-08-12T21:36:09.776Z,7.5
2023-08-12T21:39:06.356Z,13.76
2023-08-12T21:42:02.833Z,12.16
2023-08-12T21:44:58.422Z,11.18
2023-08-12T21:47:55.029Z,9.96
2023-08-12T21:50:51.522Z,7.26
2023-08-12T21:53:47.119Z,8.52
2023-08-12T21:56:42.633Z,8.14
2023-08-12T21:59:39.222Z,11.62
2023-08-12T22:02:34.802Z,12.239999999999998
2023-08-12T22:05:31.360Z,8.74
2023-08-12T22:08:28.877Z,9.3
2023-08-12T22:11:27.460Z,8.120000000000001
2023-08-12T22:14:22.992Z,10.860000000000001
2023-08-12T22:17:18.599Z,11.360000000000001
2023-08-12T22:20:14.099Z,7
2023-08-12T22:23:09.682Z,12.42
2023-08-12T22:26:05.234Z,8.08
2023-08-12T22:29:00.840Z,8.219999999999999
2023-08-12T22:31:57.378Z,10.54
2023-08-12T22:34:53.941Z,11.620000000000001
2023-08-12T22:37:49.546Z,9.6
2023-08-12T22:40:45.041Z,10.62
2023-08-12T22:43:40.581Z,9.760000000000002
2023-08-12T22:46:36.246Z,7.419999999999999
2023-08-12T22:49:31.808Z,8.34
2023-08-12T22:52:27.297Z,12.639999999999999
2023-08-12T22:55:22.888Z,10.52
2023-08-12T22:58:18.401Z,12.760000000000002
2023-08-12T23:01:14.057Z,8.680000000000001
2023-08-12T23:04:10.598Z,8.3
2023-08-12T23:07:07.126Z,8.66
2023-08-12T23:10:03.652Z,10.040000000000001
2023-08-12T23:12:59.221Z,9.98
2023-08-12T23:15:54.790Z,8.48
2023-08-12T23:18:50.330Z,7.340000000000001
2023-08-12T23:21:45.908Z,7.959999999999999
2023-08-12T23:24:42.467Z,8.48
2023-08-12T23:27:38.023Z,11.26
2023-08-12T23:30:34.621Z,8.28
2023-08-12T23:33:30.170Z,7.9799999999999995
2023-08-12T23:36:25.717Z,7.3
2023-08-12T23:39:22.304Z,7.580000000000001
2023-08-12T23:42:17.836Z,9.48
2023-08-12T23:45:13.392Z,7.039999999999999
2023-08-12T23:48:11.973Z,4.840000000000001
2023-08-12T23:51:12.507Z,7.860000000000001
2023-08-12T23:54:09.061Z,6.339999999999999
2023-08-12T23:57:05.619Z,7.540000000000001
